This is the latest recevied weather packets stored in our database for station/object PY2RMF-10. If no packets are shown the sender has not sent any weather packets the latest 10 day(s).
| Time | Temp. | Humidity | Pressure | Rain* | Wind** | Luminosity | Snow |
|---|---|---|---|---|---|---|---|
| 1778014111 | 28.33° C | 47% | 1007 hPa | - | - | - | - |
| 1778012312 | 29.44° C | 43% | 1007 hPa | - | - | - | - |
| 1778010518 | 31.67° C | 41% | 1007 hPa | - | - | - | - |
| 1778010511 | 31.11° C | 41% | 1007 hPa | - | - | - | - |
| 1778008712 | 33.33° C | 38% | 1007 hPa | - | - | - | - |
| 1778006917 | 33.89° C | 34% | 1006 hPa | - | - | - | - |
| 1778006911 | 33.89° C | 35% | 1006 hPa | - | - | - | - |
| 1778005111 | 33.33° C | 32% | 1007 hPa | - | - | - | - |
| 1778003311 | 37.22° C | 27% | 1007 hPa | - | - | - | - |
| 1778001512 | 37.78° C | 26% | 1007 hPa | - | - | - | - |
| 1777999711 | 44.44° C | 20% | 1007 hPa | - | - | - | - |
| 1777997912 | 42.78° C | 23% | 1007 hPa | - | - | - | - |
| 1777996111 | 40.56° C | 26% | 1008 hPa | - | - | - | - |
| 1777994311 | 38.33° C | 31% | 1008 hPa | - | - | - | - |
| 1777992519 | 34.44° C | 42% | 1008 hPa | - | - | - | - |
| 1777992511 | 34.44° C | 43% | 1008 hPa | - | - | - | - |
| 1777990716 | 30.56° C | 54% | 1009 hPa | - | - | - | - |
| 1777990712 | 30.56° C | 55% | 1009 hPa | - | - | - | - |
| 1777988912 | 29.44° C | 60% | 1009 hPa | - | - | - | - |
| 1777987111 | 27.78° C | 66% | 1009 hPa | - | - | - | - |
| 1777985311 | 26.67° C | 76% | 1009 hPa | - | - | - | - |
| 1777983511 | 24.44° C | 84% | 1009 hPa | - | - | - | - |
| 1777981711 | 23.89° C | 88% | 1009 hPa | - | - | - | - |
| 1777979911 | 23.89° C | 87% | 1009 hPa | - | - | - | - |
| 1777978112 | 22.78° C | 93% | 1009 hPa | - | - | - | - |
* Rain since midnight (hover to see other rain measurements)
** Current wind speed in m/s (hover to see current wind gust speed)